sensor_id;sensor_type;location;lat;lon;timestamp;P1;durP1;ratioP1;P2;durP2;ratioP2
13309;SDS011;6723;48.256;16.402;2023-08-01T00:00:50;5.70;;;3.90;;
13309;SDS011;6723;48.256;16.402;2023-08-01T00:03:16;8.43;;;4.10;;
13309;SDS011;6723;48.256;16.402;2023-08-01T00:05:42;6.87;;;3.90;;
13309;SDS011;6723;48.256;16.402;2023-08-01T00:08:13;3.97;;;3.57;;
13309;SDS011;6723;48.256;16.402;2023-08-01T00:10:39;5.70;;;3.80;;
13309;SDS011;6723;48.256;16.402;2023-08-01T00:13:08;5.30;;;3.77;;
13309;SDS011;6723;48.256;16.402;2023-08-01T00:15:34;6.80;;;3.80;;
13309;SDS011;6723;48.256;16.402;2023-08-01T00:18:01;5.10;;;4.07;;
13309;SDS011;6723;48.256;16.402;2023-08-01T00:20:26;6.07;;;4.37;;
13309;SDS011;6723;48.256;16.402;2023-08-01T00:22:52;4.93;;;4.00;;
13309;SDS011;6723;48.256;16.402;2023-08-01T00:25:19;6.13;;;3.97;;
13309;SDS011;6723;48.256;16.402;2023-08-01T00:27:45;7.57;;;3.87;;
13309;SDS011;6723;48.256;16.402;2023-08-01T00:30:11;5.10;;;4.03;;
13309;SDS011;6723;48.256;16.402;2023-08-01T00:32:37;5.70;;;4.20;;
13309;SDS011;6723;48.256;16.402;2023-08-01T00:35:03;5.17;;;3.77;;
13309;SDS011;6723;48.256;16.402;2023-08-01T00:37:29;5.93;;;3.70;;
13309;SDS011;6723;48.256;16.402;2023-08-01T00:39:55;5.93;;;3.97;;
13309;SDS011;6723;48.256;16.402;2023-08-01T00:42:21;5.00;;;3.70;;
13309;SDS011;6723;48.256;16.402;2023-08-01T00:44:47;4.33;;;3.90;;
13309;SDS011;6723;48.256;16.402;2023-08-01T00:47:14;5.87;;;3.93;;
13309;SDS011;6723;48.256;16.402;2023-08-01T00:49:40;5.10;;;4.13;;
13309;SDS011;6723;48.256;16.402;2023-08-01T00:52:07;7.20;;;4.03;;
13309;SDS011;6723;48.256;16.402;2023-08-01T00:54:33;6.60;;;4.30;;
13309;SDS011;6723;48.256;16.402;2023-08-01T00:57:05;6.40;;;4.20;;
13309;SDS011;6723;48.256;16.402;2023-08-01T00:59:31;5.93;;;3.93;;
13309;SDS011;6723;48.256;16.402;2023-08-01T01:01:58;5.07;;;3.90;;
13309;SDS011;6723;48.256;16.402;2023-08-01T01:04:25;5.47;;;3.80;;
13309;SDS011;6723;48.256;16.402;2023-08-01T01:06:52;4.77;;;3.50;;
13309;SDS011;6723;48.256;16.402;2023-08-01T01:09:27;6.13;;;3.90;;
13309;SDS011;6723;48.256;16.402;2023-08-01T01:11:54;5.47;;;3.80;;
13309;SDS011;6723;48.256;16.402;2023-08-01T01:14:20;5.13;;;3.90;;
13309;SDS011;6723;48.256;16.402;2023-08-01T01:16:46;4.83;;;3.93;;
13309;SDS011;6723;48.256;16.402;2023-08-01T01:19:11;5.30;;;3.90;;
13309;SDS011;6723;48.256;16.402;2023-08-01T01:24:26;3.97;;;3.43;;
13309;SDS011;6723;48.256;16.402;2023-08-01T01:26:53;5.33;;;4.00;;
13309;SDS011;6723;48.256;16.402;2023-08-01T01:29:21;5.60;;;4.07;;
13309;SDS011;6723;48.256;16.402;2023-08-01T01:31:48;5.43;;;3.80;;
13309;SDS011;6723;48.256;16.402;2023-08-01T01:34:15;6.83;;;4.33;;
13309;SDS011;6723;48.256;16.402;2023-08-01T01:36:42;5.00;;;4.07;;
13309;SDS011;6723;48.256;16.402;2023-08-01T01:39:07;4.73;;;4.07;;
13309;SDS011;6723;48.256;16.402;2023-08-01T01:41:33;6.17;;;3.97;;
13309;SDS011;6723;48.256;16.402;2023-08-01T01:43:59;6.10;;;3.80;;
13309;SDS011;6723;48.256;16.402;2023-08-01T01:46:24;4.27;;;3.77;;
13309;SDS011;6723;48.256;16.402;2023-08-01T01:48:50;7.03;;;3.70;;
13309;SDS011;6723;48.256;16.402;2023-08-01T01:51:16;5.63;;;4.27;;
13309;SDS011;6723;48.256;16.402;2023-08-01T01:53:42;6.70;;;4.90;;
13309;SDS011;6723;48.256;16.402;2023-08-01T01:56:07;6.10;;;4.53;;
13309;SDS011;6723;48.256;16.402;2023-08-01T01:58:33;6.17;;;4.20;;
13309;SDS011;6723;48.256;16.402;2023-08-01T02:00:59;5.03;;;4.20;;
13309;SDS011;6723;48.256;16.402;2023-08-01T02:03:25;4.73;;;4.13;;
13309;SDS011;6723;48.256;16.402;2023-08-01T02:05:51;5.87;;;4.37;;
13309;SDS011;6723;48.256;16.402;2023-08-01T02:08:16;7.70;;;4.30;;
13309;SDS011;6723;48.256;16.402;2023-08-01T02:10:42;7.47;;;4.40;;
13309;SDS011;6723;48.256;16.402;2023-08-01T02:13:08;6.17;;;4.50;;
13309;SDS011;6723;48.256;16.402;2023-08-01T02:15:33;8.63;;;4.50;;
13309;SDS011;6723;48.256;16.402;2023-08-01T02:17:59;7.10;;;3.90;;
13309;SDS011;6723;48.256;16.402;2023-08-01T02:20:25;5.30;;;4.37;;
13309;SDS011;6723;48.256;16.402;2023-08-01T02:22:52;7.03;;;4.33;;
13309;SDS011;6723;48.256;16.402;2023-08-01T02:25:17;6.03;;;4.07;;
13309;SDS011;6723;48.256;16.402;2023-08-01T02:27:43;5.53;;;4.13;;
13309;SDS011;6723;48.256;16.402;2023-08-01T02:30:09;4.50;;;3.90;;
13309;SDS011;6723;48.256;16.402;2023-08-01T02:32:36;9.30;;;4.10;;
13309;SDS011;6723;48.256;16.402;2023-08-01T02:35:02;6.37;;;4.63;;
13309;SDS011;6723;48.256;16.402;2023-08-01T02:37:28;6.10;;;4.20;;
13309;SDS011;6723;48.256;16.402;2023-08-01T02:39:53;6.03;;;4.40;;
13309;SDS011;6723;48.256;16.402;2023-08-01T02:42:19;7.53;;;4.43;;
13309;SDS011;6723;48.256;16.402;2023-08-01T02:44:45;8.27;;;4.23;;
13309;SDS011;6723;48.256;16.402;2023-08-01T02:47:10;6.27;;;4.30;;
13309;SDS011;6723;48.256;16.402;2023-08-01T02:49:36;5.17;;;3.97;;
13309;SDS011;6723;48.256;16.402;2023-08-01T02:52:02;7.97;;;4.13;;
13309;SDS011;6723;48.256;16.402;2023-08-01T02:54:28;5.30;;;4.07;;
13309;SDS011;6723;48.256;16.402;2023-08-01T02:56:54;5.27;;;3.73;;
13309;SDS011;6723;48.256;16.402;2023-08-01T02:59:19;10.97;;;4.23;;
13309;SDS011;6723;48.256;16.402;2023-08-01T03:01:45;4.80;;;4.13;;
13309;SDS011;6723;48.256;16.402;2023-08-01T03:04:11;6.43;;;4.37;;
13309;SDS011;6723;48.256;16.402;2023-08-01T03:06:37;5.40;;;4.40;;
13309;SDS011;6723;48.256;16.402;2023-08-01T03:09:03;9.90;;;5.00;;
13309;SDS011;6723;48.256;16.402;2023-08-01T03:11:33;5.07;;;4.30;;
13309;SDS011;6723;48.256;16.402;2023-08-01T03:14:00;5.83;;;4.27;;
13309;SDS011;6723;48.256;16.402;2023-08-01T03:16:26;7.90;;;4.57;;
13309;SDS011;6723;48.256;16.402;2023-08-01T03:18:53;7.43;;;4.70;;
13309;SDS011;6723;48.256;16.402;2023-08-01T03:21:18;8.70;;;4.33;;
13309;SDS011;6723;48.256;16.402;2023-08-01T03:23:44;6.50;;;4.50;;
13309;SDS011;6723;48.256;16.402;2023-08-01T03:26:10;6.07;;;4.33;;
13309;SDS011;6723;48.256;16.402;2023-08-01T03:28:36;6.57;;;4.63;;
13309;SDS011;6723;48.256;16.402;2023-08-01T03:31:01;5.83;;;4.63;;
13309;SDS011;6723;48.256;16.402;2023-08-01T03:33:27;7.27;;;4.90;;
13309;SDS011;6723;48.256;16.402;2023-08-01T03:35:53;7.20;;;4.37;;
13309;SDS011;6723;48.256;16.402;2023-08-01T03:38:19;6.03;;;4.60;;
13309;SDS011;6723;48.256;16.402;2023-08-01T03:40:44;8.90;;;4.20;;
13309;SDS011;6723;48.256;16.402;2023-08-01T03:43:10;7.63;;;4.70;;
13309;SDS011;6723;48.256;16.402;2023-08-01T03:45:36;5.60;;;4.43;;
13309;SDS011;6723;48.256;16.402;2023-08-01T03:48:02;5.63;;;5.13;;
13309;SDS011;6723;48.256;16.402;2023-08-01T03:50:28;8.27;;;4.67;;
13309;SDS011;6723;48.256;16.402;2023-08-01T03:52:53;6.47;;;4.73;;
13309;SDS011;6723;48.256;16.402;2023-08-01T03:55:19;6.77;;;4.40;;
13309;SDS011;6723;48.256;16.402;2023-08-01T03:57:45;7.07;;;4.73;;
13309;SDS011;6723;48.256;16.402;2023-08-01T04:00:10;8.10;;;4.53;;
13309;SDS011;6723;48.256;16.402;2023-08-01T04:02:40;5.30;;;4.70;;
13309;SDS011;6723;48.256;16.402;2023-08-01T04:05:07;6.67;;;4.40;;
13309;SDS011;6723;48.256;16.402;2023-08-01T04:07:37;5.63;;;4.87;;
13309;SDS011;6723;48.256;16.402;2023-08-01T04:10:03;6.93;;;4.10;;
13309;SDS011;6723;48.256;16.402;2023-08-01T04:12:31;6.93;;;4.20;;
13309;SDS011;6723;48.256;16.402;2023-08-01T04:14:58;7.63;;;4.70;;
13309;SDS011;6723;48.256;16.402;2023-08-01T04:17:24;8.33;;;4.43;;
13309;SDS011;6723;48.256;16.402;2023-08-01T04:19:50;8.13;;;5.67;;
13309;SDS011;6723;48.256;16.402;2023-08-01T04:22:16;8.80;;;6.03;;
13309;SDS011;6723;48.256;16.402;2023-08-01T04:24:42;7.10;;;5.87;;
13309;SDS011;6723;48.256;16.402;2023-08-01T04:27:08;6.03;;;4.83;;
13309;SDS011;6723;48.256;16.402;2023-08-01T04:29:34;9.07;;;4.87;;
13309;SDS011;6723;48.256;16.402;2023-08-01T04:32:00;9.00;;;4.57;;
13309;SDS011;6723;48.256;16.402;2023-08-01T04:34:26;11.80;;;4.53;;
13309;SDS011;6723;48.256;16.402;2023-08-01T04:36:51;6.23;;;3.93;;
13309;SDS011;6723;48.256;16.402;2023-08-01T04:39:17;6.97;;;4.77;;
13309;SDS011;6723;48.256;16.402;2023-08-01T04:41:43;5.53;;;4.07;;
13309;SDS011;6723;48.256;16.402;2023-08-01T04:44:08;16.90;;;4.70;;
13309;SDS011;6723;48.256;16.402;2023-08-01T04:46:34;9.20;;;4.40;;
13309;SDS011;6723;48.256;16.402;2023-08-01T04:49:00;8.60;;;4.13;;
13309;SDS011;6723;48.256;16.402;2023-08-01T04:51:26;9.63;;;4.27;;
13309;SDS011;6723;48.256;16.402;2023-08-01T04:53:51;8.63;;;4.40;;
13309;SDS011;6723;48.256;16.402;2023-08-01T04:56:17;8.87;;;4.80;;
13309;SDS011;6723;48.256;16.402;2023-08-01T04:58:43;9.07;;;4.70;;
13309;SDS011;6723;48.256;16.402;2023-08-01T05:01:09;5.87;;;4.87;;
13309;SDS011;6723;48.256;16.402;2023-08-01T05:03:34;7.13;;;4.40;;
13309;SDS011;6723;48.256;16.402;2023-08-01T05:06:00;12.70;;;5.20;;
13309;SDS011;6723;48.256;16.402;2023-08-01T05:08:26;8.10;;;5.00;;
13309;SDS011;6723;48.256;16.402;2023-08-01T05:10:51;7.27;;;4.80;;
13309;SDS011;6723;48.256;16.402;2023-08-01T05:13:18;9.07;;;5.27;;
13309;SDS011;6723;48.256;16.402;2023-08-01T05:15:44;9.17;;;4.73;;
13309;SDS011;6723;48.256;16.402;2023-08-01T05:18:12;8.53;;;4.90;;
13309;SDS011;6723;48.256;16.402;2023-08-01T05:20:41;8.03;;;5.43;;
13309;SDS011;6723;48.256;16.402;2023-08-01T05:23:07;7.00;;;5.20;;
13309;SDS011;6723;48.256;16.402;2023-08-01T05:25:33;7.47;;;5.40;;
13309;SDS011;6723;48.256;16.402;2023-08-01T05:27:59;8.80;;;4.90;;
13309;SDS011;6723;48.256;16.402;2023-08-01T05:30:25;9.13;;;4.90;;
13309;SDS011;6723;48.256;16.402;2023-08-01T05:32:51;5.57;;;4.83;;
13309;SDS011;6723;48.256;16.402;2023-08-01T05:35:19;10.17;;;5.20;;
13309;SDS011;6723;48.256;16.402;2023-08-01T05:37:46;10.83;;;5.50;;
13309;SDS011;6723;48.256;16.402;2023-08-01T05:40:12;9.83;;;5.50;;
13309;SDS011;6723;48.256;16.402;2023-08-01T05:42:38;9.00;;;5.13;;
13309;SDS011;6723;48.256;16.402;2023-08-01T05:45:04;6.87;;;5.10;;
13309;SDS011;6723;48.256;16.402;2023-08-01T05:47:30;9.53;;;5.13;;
13309;SDS011;6723;48.256;16.402;2023-08-01T05:49:56;9.07;;;5.30;;
13309;SDS011;6723;48.256;16.402;2023-08-01T05:52:22;9.23;;;4.97;;
13309;SDS011;6723;48.256;16.402;2023-08-01T05:54:49;10.50;;;5.10;;
13309;SDS011;6723;48.256;16.402;2023-08-01T05:57:15;8.60;;;5.90;;
13309;SDS011;6723;48.256;16.402;2023-08-01T05:59:41;7.50;;;5.63;;
13309;SDS011;6723;48.256;16.402;2023-08-01T06:02:07;6.97;;;5.60;;
13309;SDS011;6723;48.256;16.402;2023-08-01T06:04:32;6.70;;;6.00;;
13309;SDS011;6723;48.256;16.402;2023-08-01T06:06:58;7.63;;;5.50;;
13309;SDS011;6723;48.256;16.402;2023-08-01T06:09:24;10.23;;;5.43;;
13309;SDS011;6723;48.256;16.402;2023-08-01T06:11:51;8.10;;;5.67;;
13309;SDS011;6723;48.256;16.402;2023-08-01T06:14:17;6.53;;;5.17;;
13309;SDS011;6723;48.256;16.402;2023-08-01T06:16:42;7.50;;;5.10;;
13309;SDS011;6723;48.256;16.402;2023-08-01T06:19:08;6.93;;;5.50;;
13309;SDS011;6723;48.256;16.402;2023-08-01T06:21:34;8.47;;;5.10;;
13309;SDS011;6723;48.256;16.402;2023-08-01T06:24:00;9.43;;;5.67;;
13309;SDS011;6723;48.256;16.402;2023-08-01T06:26:27;10.27;;;5.53;;
13309;SDS011;6723;48.256;16.402;2023-08-01T06:28:53;10.70;;;5.87;;
13309;SDS011;6723;48.256;16.402;2023-08-01T06:31:20;10.73;;;6.17;;
13309;SDS011;6723;48.256;16.402;2023-08-01T06:33:47;10.23;;;6.00;;
13309;SDS011;6723;48.256;16.402;2023-08-01T06:36:12;8.87;;;5.93;;
13309;SDS011;6723;48.256;16.402;2023-08-01T06:38:39;8.73;;;6.13;;
13309;SDS011;6723;48.256;16.402;2023-08-01T06:41:04;9.30;;;6.50;;
13309;SDS011;6723;48.256;16.402;2023-08-01T06:43:30;6.93;;;5.93;;
13309;SDS011;6723;48.256;16.402;2023-08-01T06:45:56;8.10;;;5.73;;
13309;SDS011;6723;48.256;16.402;2023-08-01T06:48:22;11.13;;;6.57;;
13309;SDS011;6723;48.256;16.402;2023-08-01T06:50:47;11.00;;;6.00;;
13309;SDS011;6723;48.256;16.402;2023-08-01T06:53:13;10.10;;;6.23;;
13309;SDS011;6723;48.256;16.402;2023-08-01T06:55:39;8.73;;;5.50;;
13309;SDS011;6723;48.256;16.402;2023-08-01T06:58:05;12.03;;;5.80;;
13309;SDS011;6723;48.256;16.402;2023-08-01T07:00:31;6.80;;;5.80;;
13309;SDS011;6723;48.256;16.402;2023-08-01T07:02:57;7.67;;;5.93;;
13309;SDS011;6723;48.256;16.402;2023-08-01T07:05:23;10.27;;;5.67;;
13309;SDS011;6723;48.256;16.402;2023-08-01T07:07:49;9.23;;;5.30;;
13309;SDS011;6723;48.256;16.402;2023-08-01T07:10:15;7.47;;;5.40;;
13309;SDS011;6723;48.256;16.402;2023-08-01T07:12:41;8.83;;;5.57;;
13309;SDS011;6723;48.256;16.402;2023-08-01T07:15:07;12.20;;;5.53;;
13309;SDS011;6723;48.256;16.402;2023-08-01T07:17:33;11.27;;;5.90;;
13309;SDS011;6723;48.256;16.402;2023-08-01T07:19:59;9.37;;;6.27;;
13309;SDS011;6723;48.256;16.402;2023-08-01T07:22:25;9.50;;;5.97;;
13309;SDS011;6723;48.256;16.402;2023-08-01T07:24:54;9.23;;;5.90;;
13309;SDS011;6723;48.256;16.402;2023-08-01T07:27:21;9.20;;;5.70;;
13309;SDS011;6723;48.256;16.402;2023-08-01T07:29:47;11.70;;;5.80;;
13309;SDS011;6723;48.256;16.402;2023-08-01T07:32:13;8.83;;;5.13;;
13309;SDS011;6723;48.256;16.402;2023-08-01T07:34:40;7.67;;;5.50;;
13309;SDS011;6723;48.256;16.402;2023-08-01T07:37:05;9.43;;;5.20;;
13309;SDS011;6723;48.256;16.402;2023-08-01T07:39:31;9.07;;;6.03;;
13309;SDS011;6723;48.256;16.402;2023-08-01T07:41:59;11.07;;;5.83;;
13309;SDS011;6723;48.256;16.402;2023-08-01T07:44:25;9.97;;;5.57;;
13309;SDS011;6723;48.256;16.402;2023-08-01T07:46:51;6.87;;;5.10;;
13309;SDS011;6723;48.256;16.402;2023-08-01T07:49:17;11.37;;;4.80;;
13309;SDS011;6723;48.256;16.402;2023-08-01T07:51:44;7.60;;;4.93;;
13309;SDS011;6723;48.256;16.402;2023-08-01T07:54:10;8.63;;;4.80;;
13309;SDS011;6723;48.256;16.402;2023-08-01T07:56:36;5.30;;;4.07;;
13309;SDS011;6723;48.256;16.402;2023-08-01T07:59:01;6.93;;;4.50;;
13309;SDS011;6723;48.256;16.402;2023-08-01T08:01:27;4.60;;;3.90;;
13309;SDS011;6723;48.256;16.402;2023-08-01T08:03:53;6.47;;;3.73;;
13309;SDS011;6723;48.256;16.402;2023-08-01T08:06:18;6.43;;;4.20;;
13309;SDS011;6723;48.256;16.402;2023-08-01T08:08:46;6.97;;;4.07;;
13309;SDS011;6723;48.256;16.402;2023-08-01T08:11:12;6.73;;;3.63;;
13309;SDS011;6723;48.256;16.402;2023-08-01T08:13:37;8.97;;;4.07;;
13309;SDS011;6723;48.256;16.402;2023-08-01T08:16:04;10.40;;;3.90;;
13309;SDS011;6723;48.256;16.402;2023-08-01T08:18:31;8.03;;;4.23;;
13309;SDS011;6723;48.256;16.402;2023-08-01T08:20:57;4.77;;;4.10;;
13309;SDS011;6723;48.256;16.402;2023-08-01T08:23:22;8.00;;;4.37;;
13309;SDS011;6723;48.256;16.402;2023-08-01T08:25:48;6.40;;;3.73;;
13309;SDS011;6723;48.256;16.402;2023-08-01T08:28:16;5.67;;;4.07;;
13309;SDS011;6723;48.256;16.402;2023-08-01T08:30:52;5.97;;;3.83;;
13309;SDS011;6723;48.256;16.402;2023-08-01T08:33:19;5.20;;;4.03;;
13309;SDS011;6723;48.256;16.402;2023-08-01T08:35:46;5.73;;;4.20;;
13309;SDS011;6723;48.256;16.402;2023-08-01T08:38:12;5.80;;;4.07;;
13309;SDS011;6723;48.256;16.402;2023-08-01T08:40:40;5.27;;;3.83;;
13309;SDS011;6723;48.256;16.402;2023-08-01T08:43:10;7.00;;;4.57;;
13309;SDS011;6723;48.256;16.402;2023-08-01T08:45:37;5.07;;;4.30;;
13309;SDS011;6723;48.256;16.402;2023-08-01T08:48:08;8.40;;;6.10;;
13309;SDS011;6723;48.256;16.402;2023-08-01T08:50:38;14.13;;;7.50;;
13309;SDS011;6723;48.256;16.402;2023-08-01T08:53:05;14.60;;;6.53;;
13309;SDS011;6723;48.256;16.402;2023-08-01T08:55:37;9.77;;;4.63;;
13309;SDS011;6723;48.256;16.402;2023-08-01T08:58:04;9.50;;;4.77;;
13309;SDS011;6723;48.256;16.402;2023-08-01T09:00:31;8.93;;;4.83;;
13309;SDS011;6723;48.256;16.402;2023-08-01T09:02:57;8.83;;;4.57;;
13309;SDS011;6723;48.256;16.402;2023-08-01T09:05:24;6.83;;;4.77;;
13309;SDS011;6723;48.256;16.402;2023-08-01T09:07:54;8.90;;;5.23;;
13309;SDS011;6723;48.256;16.402;2023-08-01T09:10:23;11.87;;;5.80;;
13309;SDS011;6723;48.256;16.402;2023-08-01T09:12:49;12.47;;;5.90;;
13309;SDS011;6723;48.256;16.402;2023-08-01T09:15:16;10.20;;;5.43;;
13309;SDS011;6723;48.256;16.402;2023-08-01T09:17:52;9.00;;;4.87;;
13309;SDS011;6723;48.256;16.402;2023-08-01T09:20:21;10.47;;;5.30;;
13309;SDS011;6723;48.256;16.402;2023-08-01T09:22:47;10.33;;;5.50;;
13309;SDS011;6723;48.256;16.402;2023-08-01T09:25:12;7.83;;;4.87;;
13309;SDS011;6723;48.256;16.402;2023-08-01T09:27:39;8.50;;;4.90;;
13309;SDS011;6723;48.256;16.402;2023-08-01T09:30:09;8.17;;;4.80;;
13309;SDS011;6723;48.256;16.402;2023-08-01T09:32:38;11.10;;;5.20;;
13309;SDS011;6723;48.256;16.402;2023-08-01T09:35:05;9.90;;;5.17;;
13309;SDS011;6723;48.256;16.402;2023-08-01T09:37:40;7.77;;;5.00;;
13309;SDS011;6723;48.256;16.402;2023-08-01T09:40:10;8.20;;;4.97;;
13309;SDS011;6723;48.256;16.402;2023-08-01T09:42:40;8.30;;;5.30;;
13309;SDS011;6723;48.256;16.402;2023-08-01T09:45:11;9.33;;;4.40;;
13309;SDS011;6723;48.256;16.402;2023-08-01T09:47:44;10.63;;;5.63;;
13309;SDS011;6723;48.256;16.402;2023-08-01T09:50:11;9.63;;;5.47;;
13309;SDS011;6723;48.256;16.402;2023-08-01T09:52:45;11.60;;;4.73;;
13309;SDS011;6723;48.256;16.402;2023-08-01T09:55:27;8.73;;;5.03;;
13309;SDS011;6723;48.256;16.402;2023-08-01T09:57:57;10.90;;;4.90;;
13309;SDS011;6723;48.256;16.402;2023-08-01T10:00:28;10.43;;;4.83;;
13309;SDS011;6723;48.256;16.402;2023-08-01T10:02:55;7.87;;;4.90;;
13309;SDS011;6723;48.256;16.402;2023-08-01T10:05:27;9.90;;;5.23;;
13309;SDS011;6723;48.256;16.402;2023-08-01T10:07:57;10.50;;;5.83;;
13309;SDS011;6723;48.256;16.402;2023-08-01T10:10:26;10.87;;;5.73;;
13309;SDS011;6723;48.256;16.402;2023-08-01T10:12:54;9.70;;;6.00;;
13309;SDS011;6723;48.256;16.402;2023-08-01T10:15:24;12.23;;;6.20;;
13309;SDS011;6723;48.256;16.402;2023-08-01T10:17:53;10.17;;;6.00;;
13309;SDS011;6723;48.256;16.402;2023-08-01T10:20:18;12.47;;;6.40;;
13309;SDS011;6723;48.256;16.402;2023-08-01T10:22:48;12.33;;;6.80;;
13309;SDS011;6723;48.256;16.402;2023-08-01T10:25:15;10.10;;;7.13;;
13309;SDS011;6723;48.256;16.402;2023-08-01T10:27:43;10.73;;;6.20;;
13309;SDS011;6723;48.256;16.402;2023-08-01T10:30:09;8.40;;;5.53;;
13309;SDS011;6723;48.256;16.402;2023-08-01T10:32:35;7.47;;;5.53;;
13309;SDS011;6723;48.256;16.402;2023-08-01T10:35:02;8.47;;;5.40;;
13309;SDS011;6723;48.256;16.402;2023-08-01T10:37:43;8.63;;;5.20;;
13309;SDS011;6723;48.256;16.402;2023-08-01T10:40:12;8.67;;;5.13;;
13309;SDS011;6723;48.256;16.402;2023-08-01T10:42:39;9.43;;;5.70;;
13309;SDS011;6723;48.256;16.402;2023-08-01T10:45:06;6.73;;;5.80;;
13309;SDS011;6723;48.256;16.402;2023-08-01T10:47:33;6.03;;;5.33;;
13309;SDS011;6723;48.256;16.402;2023-08-01T10:49:59;9.23;;;5.40;;
13309;SDS011;6723;48.256;16.402;2023-08-01T10:52:26;8.23;;;5.30;;
13309;SDS011;6723;48.256;16.402;2023-08-01T10:54:56;8.37;;;5.13;;
13309;SDS011;6723;48.256;16.402;2023-08-01T10:57:27;7.27;;;5.60;;
13309;SDS011;6723;48.256;16.402;2023-08-01T10:59:57;7.40;;;5.47;;
13309;SDS011;6723;48.256;16.402;2023-08-01T11:02:24;6.50;;;5.00;;
13309;SDS011;6723;48.256;16.402;2023-08-01T11:05:01;7.10;;;5.03;;
13309;SDS011;6723;48.256;16.402;2023-08-01T11:07:28;6.10;;;5.20;;
13309;SDS011;6723;48.256;16.402;2023-08-01T11:12:38;10.53;;;5.77;;
13309;SDS011;6723;48.256;16.402;2023-08-01T11:15:06;8.03;;;6.30;;
13309;SDS011;6723;48.256;16.402;2023-08-01T11:17:38;11.53;;;6.43;;
13309;SDS011;6723;48.256;16.402;2023-08-01T11:20:06;7.80;;;6.83;;
13309;SDS011;6723;48.256;16.402;2023-08-01T11:22:33;9.53;;;6.67;;
13309;SDS011;6723;48.256;16.402;2023-08-01T11:25:00;8.17;;;6.97;;
13309;SDS011;6723;48.256;16.402;2023-08-01T11:27:26;8.77;;;7.30;;
13309;SDS011;6723;48.256;16.402;2023-08-01T11:29:53;10.30;;;7.43;;
13309;SDS011;6723;48.256;16.402;2023-08-01T11:32:19;9.17;;;7.03;;
13309;SDS011;6723;48.256;16.402;2023-08-01T11:34:46;8.90;;;7.50;;
13309;SDS011;6723;48.256;16.402;2023-08-01T11:37:13;10.47;;;8.43;;
13309;SDS011;6723;48.256;16.402;2023-08-01T11:39:40;10.60;;;8.03;;
13309;SDS011;6723;48.256;16.402;2023-08-01T11:42:06;11.20;;;8.10;;
13309;SDS011;6723;48.256;16.402;2023-08-01T11:44:32;10.40;;;7.37;;
13309;SDS011;6723;48.256;16.402;2023-08-01T11:46:57;12.83;;;8.40;;
13309;SDS011;6723;48.256;16.402;2023-08-01T11:49:23;12.93;;;8.70;;
13309;SDS011;6723;48.256;16.402;2023-08-01T11:51:51;12.07;;;8.73;;
13309;SDS011;6723;48.256;16.402;2023-08-01T11:54:16;14.17;;;9.37;;
13309;SDS011;6723;48.256;16.402;2023-08-01T11:56:42;14.07;;;10.33;;
13309;SDS011;6723;48.256;16.402;2023-08-01T11:59:15;13.00;;;9.57;;
13309;SDS011;6723;48.256;16.402;2023-08-01T12:01:46;14.77;;;9.30;;
13309;SDS011;6723;48.256;16.402;2023-08-01T12:04:26;14.50;;;9.70;;
13309;SDS011;6723;48.256;16.402;2023-08-01T12:06:53;14.63;;;10.20;;
13309;SDS011;6723;48.256;16.402;2023-08-01T12:09:19;13.23;;;10.37;;
13309;SDS011;6723;48.256;16.402;2023-08-01T12:11:57;14.07;;;10.63;;
13309;SDS011;6723;48.256;16.402;2023-08-01T12:14:26;14.67;;;10.67;;
13309;SDS011;6723;48.256;16.402;2023-08-01T12:16:53;13.70;;;9.67;;
13309;SDS011;6723;48.256;16.402;2023-08-01T12:19:19;11.70;;;9.70;;
13309;SDS011;6723;48.256;16.402;2023-08-01T12:21:46;10.37;;;8.50;;
13309;SDS011;6723;48.256;16.402;2023-08-01T12:24:13;12.83;;;9.40;;
13309;SDS011;6723;48.256;16.402;2023-08-01T12:26:38;13.80;;;9.20;;
13309;SDS011;6723;48.256;16.402;2023-08-01T12:29:04;8.83;;;7.43;;
13309;SDS011;6723;48.256;16.402;2023-08-01T12:31:30;13.23;;;8.87;;
13309;SDS011;6723;48.256;16.402;2023-08-01T12:33:56;11.80;;;8.40;;
13309;SDS011;6723;48.256;16.402;2023-08-01T12:36:25;11.83;;;8.50;;
13309;SDS011;6723;48.256;16.402;2023-08-01T12:38:51;15.07;;;9.70;;
13309;SDS011;6723;48.256;16.402;2023-08-01T12:41:17;11.53;;;9.23;;
13309;SDS011;6723;48.256;16.402;2023-08-01T12:43:43;12.30;;;10.80;;
13309;SDS011;6723;48.256;16.402;2023-08-01T12:46:09;12.23;;;9.40;;
13309;SDS011;6723;48.256;16.402;2023-08-01T12:48:35;11.20;;;9.13;;
13309;SDS011;6723;48.256;16.402;2023-08-01T12:51:00;13.90;;;9.07;;
13309;SDS011;6723;48.256;16.402;2023-08-01T12:53:28;12.37;;;8.67;;
13309;SDS011;6723;48.256;16.402;2023-08-01T12:55:54;9.57;;;7.73;;
13309;SDS011;6723;48.256;16.402;2023-08-01T12:58:19;9.57;;;6.80;;
13309;SDS011;6723;48.256;16.402;2023-08-01T13:00:45;8.43;;;7.33;;
13309;SDS011;6723;48.256;16.402;2023-08-01T13:03:12;12.83;;;8.57;;
13309;SDS011;6723;48.256;16.402;2023-08-01T13:05:38;8.70;;;6.40;;
13309;SDS011;6723;48.256;16.402;2023-08-01T13:08:05;11.57;;;6.97;;
13309;SDS011;6723;48.256;16.402;2023-08-01T13:10:31;10.67;;;8.00;;
13309;SDS011;6723;48.256;16.402;2023-08-01T13:12:58;10.33;;;7.10;;
13309;SDS011;6723;48.256;16.402;2023-08-01T13:15:24;11.23;;;8.10;;
13309;SDS011;6723;48.256;16.402;2023-08-01T13:17:51;10.10;;;7.40;;
13309;SDS011;6723;48.256;16.402;2023-08-01T13:20:17;10.97;;;7.47;;
13309;SDS011;6723;48.256;16.402;2023-08-01T13:22:45;10.83;;;8.60;;
13309;SDS011;6723;48.256;16.402;2023-08-01T13:25:15;18.83;;;13.63;;
13309;SDS011;6723;48.256;16.402;2023-08-01T13:27:41;12.33;;;8.43;;
13309;SDS011;6723;48.256;16.402;2023-08-01T13:30:08;14.27;;;10.23;;
13309;SDS011;6723;48.256;16.402;2023-08-01T13:32:34;14.03;;;7.90;;
13309;SDS011;6723;48.256;16.402;2023-08-01T13:35:01;13.00;;;7.83;;
13309;SDS011;6723;48.256;16.402;2023-08-01T13:37:27;11.60;;;8.17;;
13309;SDS011;6723;48.256;16.402;2023-08-01T13:39:57;16.20;;;8.73;;
13309;SDS011;6723;48.256;16.402;2023-08-01T13:42:23;15.43;;;9.67;;
13309;SDS011;6723;48.256;16.402;2023-08-01T13:44:48;14.93;;;9.60;;
13309;SDS011;6723;48.256;16.402;2023-08-01T13:47:14;11.37;;;7.70;;
13309;SDS011;6723;48.256;16.402;2023-08-01T13:49:40;12.57;;;8.37;;
13309;SDS011;6723;48.256;16.402;2023-08-01T13:52:06;13.97;;;9.00;;
13309;SDS011;6723;48.256;16.402;2023-08-01T13:54:32;15.03;;;9.20;;
13309;SDS011;6723;48.256;16.402;2023-08-01T13:56:58;13.83;;;10.67;;
13309;SDS011;6723;48.256;16.402;2023-08-01T13:59:24;13.07;;;10.10;;
13309;SDS011;6723;48.256;16.402;2023-08-01T14:01:50;18.60;;;10.10;;
13309;SDS011;6723;48.256;16.402;2023-08-01T14:04:17;12.10;;;9.47;;
13309;SDS011;6723;48.256;16.402;2023-08-01T14:06:43;10.60;;;7.90;;
13309;SDS011;6723;48.256;16.402;2023-08-01T14:09:09;12.23;;;7.50;;
13309;SDS011;6723;48.256;16.402;2023-08-01T14:11:36;11.13;;;7.30;;
13309;SDS011;6723;48.256;16.402;2023-08-01T14:14:02;11.03;;;7.90;;
13309;SDS011;6723;48.256;16.402;2023-08-01T14:16:29;12.50;;;8.13;;
13309;SDS011;6723;48.256;16.402;2023-08-01T14:18:56;20.97;;;9.60;;
13309;SDS011;6723;48.256;16.402;2023-08-01T14:21:22;13.60;;;9.07;;
13309;SDS011;6723;48.256;16.402;2023-08-01T14:23:48;14.30;;;9.50;;
13309;SDS011;6723;48.256;16.402;2023-08-01T14:26:14;14.40;;;8.70;;
13309;SDS011;6723;48.256;16.402;2023-08-01T14:28:39;13.93;;;9.97;;
13309;SDS011;6723;48.256;16.402;2023-08-01T14:31:05;13.80;;;9.37;;
13309;SDS011;6723;48.256;16.402;2023-08-01T14:33:32;15.17;;;9.40;;
13309;SDS011;6723;48.256;16.402;2023-08-01T14:35:59;12.97;;;9.53;;
13309;SDS011;6723;48.256;16.402;2023-08-01T14:38:25;17.90;;;10.70;;
13309;SDS011;6723;48.256;16.402;2023-08-01T14:40:54;13.13;;;10.33;;
13309;SDS011;6723;48.256;16.402;2023-08-01T14:43:20;17.13;;;10.10;;
13309;SDS011;6723;48.256;16.402;2023-08-01T14:45:46;14.33;;;10.57;;